Time;durP1;ratioP1;P1;durP2;ratioP2;P2;SDS_P1;SDS_P2;PMS_P1;PMS_P2;Temp;Humidity;BMP_temperature;BMP_pressure;BME280_temperature;BME280_humidity;BME280_pressure;Samples;Min_cycle;Max_cycle;Signal;HPM_P1;HPM_P2
2021/11/07 00:00:26;;;;;;;4.47;1.50;;;3.20;99.90;;;;;;5115581;28;20445;-57
2021/11/07 00:02:59;;;;;;;2.80;1.40;;;3.30;99.90;;;;;;5115469;28;20535;-60
2021/11/07 00:05:29;;;;;;;2.27;1.23;;;3.50;99.90;;;;;;5114831;28;20456;-58
2021/11/07 00:10:47;;;;;;;3.13;1.10;;;3.70;99.90;;;;;;5108851;28;20451;-59
2021/11/07 00:13:18;;;;;;;1.63;1.03;;;3.50;99.90;;;;;;5114033;28;20888;-57
2021/11/07 00:15:46;;;;;;;1.70;1.10;;;3.30;99.90;;;;;;5113361;28;20441;-59
2021/11/07 00:18:16;;;;;;;3.03;1.00;;;3.30;99.90;;;;;;5113510;28;20504;-58
2021/11/07 00:20:51;;;;;;;1.67;1.10;;;3.20;99.90;;;;;;5114477;28;20644;-58
2021/11/07 00:26:15;;;;;;;2.23;0.90;;;2.90;99.90;;;;;;5097615;28;20452;-57
2021/11/07 00:28:46;;;;;;;2.53;1.03;;;2.90;99.90;;;;;;5115192;28;20433;-58
2021/11/07 00:31:21;;;;;;;1.50;1.00;;;2.80;99.90;;;;;;5115185;28;20448;-57
2021/11/07 00:36:34;;;;;;;3.37;0.90;;;2.60;99.90;;;;;;5100824;28;20465;-56
2021/11/07 00:39:10;;;;;;;2.83;0.87;;;2.80;99.90;;;;;;5114988;28;20538;-57
2021/11/07 00:41:45;;;;;;;4.40;1.00;;;2.90;99.90;;;;;;5115406;28;20830;-56
2021/11/07 00:44:16;;;;;;;2.70;1.17;;;2.90;99.90;;;;;;5114712;28;20440;-58
2021/11/07 00:46:46;;;;;;;2.03;0.90;;;2.70;99.90;;;;;;5114288;28;20427;-57
2021/11/07 00:49:17;;;;;;;2.03;0.80;;;2.60;99.90;;;;;;5114505;28;20435;-58
2021/11/07 00:51:56;;;;;;;1.63;1.00;;;2.40;99.90;;;;;;5114179;28;20470;-58
2021/11/07 00:54:27;;;;;;;2.70;0.80;;;2.30;99.90;;;;;;5113947;28;20874;-58
2021/11/07 00:56:58;;;;;;;1.60;0.90;;;2.50;99.90;;;;;;5113463;28;20459;-57
2021/11/07 00:59:36;;;;;;;2.20;1.00;;;2.50;99.90;;;;;;5112949;28;20456;-57
2021/11/07 01:02:12;;;;;;;4.10;1.00;;;2.50;99.90;;;;;;5113085;28;20458;-57
2021/11/07 01:04:44;;;;;;;2.03;1.10;;;2.60;99.90;;;;;;5112420;28;20451;-57
2021/11/07 01:07:11;;;;;;;2.50;1.07;;;2.50;99.90;;;;;;5112009;28;20547;-57
2021/11/07 01:09:38;;;;;;;2.67;0.90;;;2.50;99.90;;;;;;5112504;28;20805;-56
2021/11/07 01:12:08;;;;;;;2.00;1.40;;;2.40;99.90;;;;;;5112737;28;20547;-58
2021/11/07 01:14:35;;;;;;;4.00;1.10;;;2.40;99.90;;;;;;5113487;28;20687;-57
2021/11/07 01:17:03;;;;;;;1.60;0.80;;;2.40;99.90;;;;;;5114015;28;20464;-57
2021/11/07 01:19:30;;;;;;;2.53;1.10;;;2.30;99.90;;;;;;5115055;28;20856;-57
2021/11/07 01:22:00;;;;;;;1.17;0.80;;;2.40;99.90;;;;;;5115910;28;20534;-57
2021/11/07 01:24:31;;;;;;;1.53;1.07;;;2.50;99.90;;;;;;5115588;28;20823;-57
2021/11/07 01:27:08;;;;;;;3.47;1.00;;;2.40;99.90;;;;;;5117083;28;20480;-56
2021/11/07 01:29:40;;;;;;;4.90;1.10;;;2.30;99.90;;;;;;5119637;28;20449;-58
2021/11/07 01:32:08;;;;;;;4.37;1.10;;;2.40;99.90;;;;;;5118950;28;20955;-56
2021/11/07 01:34:47;;;;;;;1.57;1.13;;;2.70;99.90;;;;;;5118431;28;20750;-57
2021/11/07 01:37:15;;;;;;;4.10;1.07;;;3.00;99.90;;;;;;5118431;28;20491;-57
2021/11/07 01:39:48;;;;;;;3.27;1.10;;;3.10;99.90;;;;;;5118681;27;20524;-58
2021/11/07 01:42:19;;;;;;;3.23;1.17;;;3.10;99.90;;;;;;5118203;28;20456;-58
2021/11/07 01:44:52;;;;;;;1.80;0.90;;;3.00;99.90;;;;;;5117771;28;20521;-56
2021/11/07 01:47:21;;;;;;;2.20;0.80;;;3.20;99.90;;;;;;5117294;28;20854;-58
2021/11/07 01:49:48;;;;;;;4.10;1.20;;;3.50;99.90;;;;;;5117743;28;20455;-58
2021/11/07 01:52:16;;;;;;;3.03;1.07;;;3.60;99.90;;;;;;5118321;28;20453;-57
2021/11/07 01:54:52;;;;;;;1.60;1.00;;;3.40;99.90;;;;;;5118483;28;20444;-58
2021/11/07 01:57:21;;;;;;;2.13;0.83;;;3.50;99.90;;;;;;5117941;28;20484;-58
2021/11/07 01:59:53;;;;;;;1.90;1.00;;;3.40;99.90;;;;;;5117555;28;21121;-58
2021/11/07 02:02:21;;;;;;;2.57;1.10;;;3.60;99.90;;;;;;5117515;28;20556;-58
2021/11/07 02:04:49;;;;;;;2.57;1.30;;;3.70;99.90;;;;;;5116660;27;20543;-58
2021/11/07 02:07:16;;;;;;;3.73;1.47;;;3.70;99.90;;;;;;5115678;28;20753;-58
2021/11/07 02:09:44;;;;;;;2.07;1.00;;;3.70;99.90;;;;;;5115308;28;20786;-58
2021/11/07 02:12:12;;;;;;;2.00;1.10;;;3.60;99.90;;;;;;5114795;28;20474;-58
2021/11/07 02:14:40;;;;;;;2.30;1.20;;;3.30;99.90;;;;;;5115727;28;20497;-58
2021/11/07 02:17:09;;;;;;;3.57;1.30;;;3.20;99.90;;;;;;5116292;28;20551;-58
2021/11/07 02:19:37;;;;;;;2.70;1.00;;;3.10;99.90;;;;;;5115425;28;20444;-58
2021/11/07 02:22:06;;;;;;;4.50;1.80;;;3.30;99.90;;;;;;5114401;27;20501;-55
2021/11/07 02:24:36;;;;;;;2.43;1.00;;;3.50;99.90;;;;;;5113873;28;20444;-57
2021/11/07 02:27:04;;;;;;;2.90;1.10;;;3.80;99.90;;;;;;5113202;28;20579;-58
2021/11/07 02:29:32;;;;;;;2.63;1.27;;;3.90;99.90;;;;;;5113775;28;20895;-57
2021/11/07 02:32:00;;;;;;;4.10;1.53;;;3.60;99.90;;;;;;5114587;28;20903;-56
2021/11/07 02:34:29;;;;;;;2.80;1.13;;;3.50;99.90;;;;;;5115481;28;20518;-57
2021/11/07 02:36:57;;;;;;;3.37;1.20;;;3.30;99.90;;;;;;5115738;28;20828;-57
2021/11/07 02:39:26;;;;;;;1.97;0.97;;;3.30;99.90;;;;;;5117043;28;20516;-57
2021/11/07 02:41:53;;;;;;;2.73;1.00;;;3.30;99.90;;;;;;5116749;28;20551;-58
2021/11/07 02:44:31;;;;;;;2.40;1.03;;;3.10;99.90;;;;;;5116797;27;20502;-57
2021/11/07 02:46:58;;;;;;;3.47;1.20;;;3.10;99.90;;;;;;5116395;28;20556;-58
2021/11/07 02:49:26;;;;;;;3.10;1.17;;;3.00;99.90;;;;;;5115890;28;20461;-57
2021/11/07 02:51:57;;;;;;;4.67;1.47;;;3.00;99.90;;;;;;5116760;28;20453;-56
2021/11/07 02:54:26;;;;;;;3.17;1.10;;;2.90;99.90;;;;;;5116832;28;20459;-56
2021/11/07 02:56:53;;;;;;;2.20;1.20;;;3.10;99.90;;;;;;5116441;28;20453;-56
2021/11/07 02:59:22;;;;;;;3.20;1.30;;;3.00;99.90;;;;;;5116184;28;20487;-57
2021/11/07 03:01:50;;;;;;;3.40;1.00;;;3.00;99.90;;;;;;5117941;28;20456;-57
2021/11/07 03:04:17;;;;;;;4.67;1.27;;;3.10;99.90;;;;;;5116781;28;20440;-57
2021/11/07 03:06:45;;;;;;;2.00;1.20;;;3.40;99.90;;;;;;5116569;28;20878;-62
2021/11/07 03:09:15;;;;;;;2.50;1.30;;;3.60;99.90;;;;;;5116768;28;20445;-55
2021/11/07 03:11:44;;;;;;;3.33;1.47;;;3.50;99.90;;;;;;5115167;28;20449;-57
2021/11/07 03:14:14;;;;;;;3.53;1.20;;;3.40;99.90;;;;;;5115479;28;20419;-57
2021/11/07 03:16:43;;;;;;;4.43;1.30;;;3.10;99.90;;;;;;5115974;28;20791;-57
2021/11/07 03:19:10;;;;;;;3.03;1.20;;;3.00;99.90;;;;;;5115927;28;20498;-58
2021/11/07 03:21:38;;;;;;;4.07;1.30;;;3.10;99.90;;;;;;5116197;27;20460;-58
2021/11/07 03:24:06;;;;;;;4.10;1.47;;;3.40;99.90;;;;;;5116055;28;20441;-57
2021/11/07 03:26:35;;;;;;;2.70;1.40;;;3.40;99.90;;;;;;5115697;28;21092;-58
2021/11/07 03:29:05;;;;;;;3.20;1.20;;;3.30;99.90;;;;;;5117460;28;20842;-56
2021/11/07 03:31:45;;;;;;;3.70;1.30;;;3.20;99.90;;;;;;5117373;28;20509;-58
2021/11/07 03:34:13;;;;;;;2.53;1.20;;;3.20;99.90;;;;;;5117495;28;20448;-56
2021/11/07 03:36:48;;;;;;;2.00;0.90;;;3.30;99.90;;;;;;5117945;28;20527;-58
2021/11/07 03:39:18;;;;;;;3.23;1.10;;;3.50;99.90;;;;;;5117078;28;20554;-58
2021/11/07 03:41:45;;;;;;;2.23;1.23;;;3.80;99.90;;;;;;5117192;28;20833;-58
2021/11/07 03:44:16;;;;;;;2.93;1.27;;;3.80;99.90;;;;;;5116734;28;20419;-58
2021/11/07 03:46:44;;;;;;;2.10;1.00;;;3.80;99.90;;;;;;5117409;28;20431;-58
2021/11/07 03:49:12;;;;;;;2.90;1.07;;;3.80;99.90;;;;;;5116436;28;20460;-58
2021/11/07 03:51:39;;;;;;;2.73;1.03;;;3.60;99.90;;;;;;5117097;28;20782;-57
2021/11/07 03:54:08;;;;;;;2.23;1.20;;;3.50;99.90;;;;;;5116920;28;20440;-57
2021/11/07 03:56:36;;;;;;;1.57;1.13;;;3.40;99.90;;;;;;5116901;28;20464;-58
2021/11/07 03:59:03;;;;;;;2.40;1.13;;;3.50;99.90;;;;;;5116445;28;20534;-57
2021/11/07 04:01:32;;;;;;;5.07;1.67;;;3.70;99.90;;;;;;5115020;28;20491;-56
2021/11/07 04:04:00;;;;;;;2.80;1.57;;;3.70;99.90;;;;;;5114479;28;20449;-56
2021/11/07 04:06:27;;;;;;;1.70;1.10;;;3.70;99.90;;;;;;5114955;28;20854;-58
2021/11/07 04:08:54;;;;;;;2.60;1.30;;;3.50;99.90;;;;;;5115387;28;20507;-58
2021/11/07 04:11:21;;;;;;;1.60;0.77;;;3.40;99.90;;;;;;5115913;28;20464;-57
2021/11/07 04:13:48;;;;;;;2.20;0.97;;;3.40;99.90;;;;;;5115847;28;20962;-56
2021/11/07 04:16:16;;;;;;;3.63;1.30;;;3.40;99.90;;;;;;5114159;28;20768;-57
2021/11/07 04:18:46;;;;;;;4.03;1.63;;;3.50;99.90;;;;;;5114680;28;20512;-57
2021/11/07 04:21:14;;;;;;;3.77;1.30;;;3.50;99.90;;;;;;5114540;28;20448;-57
2021/11/07 04:23:41;;;;;;;2.23;0.90;;;3.40;99.90;;;;;;5115003;28;20827;-56
2021/11/07 04:26:09;;;;;;;2.30;1.10;;;3.40;99.90;;;;;;5112928;28;20516;-58
2021/11/07 04:28:36;;;;;;;2.20;0.80;;;3.40;99.90;;;;;;5114889;28;20441;-57
2021/11/07 04:31:03;;;;;;;3.53;1.10;;;3.40;99.90;;;;;;5116299;28;20458;-50
2021/11/07 04:33:30;;;;;;;2.50;1.00;;;3.50;99.90;;;;;;5116451;28;20464;-57
2021/11/07 04:35:59;;;;;;;3.17;1.07;;;3.50;99.90;;;;;;5116283;28;20452;-57
2021/11/07 04:38:27;;;;;;;1.60;0.90;;;3.50;99.90;;;;;;5116520;28;20914;-56
2021/11/07 04:40:55;;;;;;;2.23;1.00;;;3.60;99.90;;;;;;5116532;28;20423;-56
2021/11/07 04:43:22;;;;;;;2.90;1.00;;;3.80;99.90;;;;;;5117183;28;20456;-54
2021/11/07 04:45:50;;;;;;;3.40;0.90;;;3.80;99.90;;;;;;5116600;28;20509;-54
2021/11/07 04:48:17;;;;;;;1.70;0.80;;;3.80;99.90;;;;;;5115354;28;20517;-55
2021/11/07 04:50:46;;;;;;;1.90;1.10;;;3.80;99.90;;;;;;5114898;28;20960;-54
2021/11/07 04:53:20;;;;;;;3.27;1.03;;;3.80;99.90;;;;;;5114970;28;20431;-57
2021/11/07 04:55:47;;;;;;;3.77;1.53;;;3.80;99.90;;;;;;5114756;28;20448;-54
2021/11/07 04:58:15;;;;;;;1.80;1.00;;;3.80;99.90;;;;;;5114401;28;20492;-56
2021/11/07 05:00:43;;;;;;;2.03;0.97;;;3.70;99.90;;;;;;5117779;28;20496;-55
2021/11/07 05:03:11;;;;;;;2.13;0.80;;;3.60;99.90;;;;;;5120200;28;20472;-56
2021/11/07 05:05:38;;;;;;;3.27;1.37;;;3.50;99.90;;;;;;5120353;28;20465;-56
2021/11/07 05:08:06;;;;;;;1.87;1.10;;;3.40;99.90;;;;;;5120407;28;20460;-57
2021/11/07 05:10:35;;;;;;;2.33;1.30;;;3.30;99.90;;;;;;5119795;27;20497;-54
2021/11/07 05:13:03;;;;;;;2.77;0.97;;;3.30;99.90;;;;;;5119266;28;20460;-55
2021/11/07 05:15:30;;;;;;;2.40;0.90;;;3.30;99.90;;;;;;5118829;28;20448;-54
2021/11/07 05:17:57;;;;;;;1.53;0.90;;;3.30;99.90;;;;;;5119636;28;20539;-57
2021/11/07 05:20:24;;;;;;;1.30;0.90;;;3.40;99.90;;;;;;5119798;28;20550;-55
2021/11/07 05:22:51;;;;;;;3.70;1.00;;;3.40;99.90;;;;;;5119604;27;20469;-57
2021/11/07 05:25:18;;;;;;;1.83;1.10;;;3.50;99.90;;;;;;5117944;28;20535;-56
2021/11/07 05:27:47;;;;;;;1.40;0.90;;;3.60;99.90;;;;;;5119830;28;20459;-56
2021/11/07 05:30:16;;;;;;;1.57;0.87;;;3.80;99.90;;;;;;5119831;28;20520;-55
2021/11/07 05:32:44;;;;;;;1.50;0.90;;;3.80;99.90;;;;;;5119494;27;20463;-56
2021/11/07 05:35:13;;;;;;;2.90;0.80;;;3.90;99.90;;;;;;5119625;28;20748;-56
2021/11/07 05:37:40;;;;;;;3.03;1.23;;;3.80;99.90;;;;;;5119671;28;20476;-57
2021/11/07 05:40:09;;;;;;;2.90;1.00;;;3.70;99.90;;;;;;5119755;28;20572;-56
2021/11/07 05:42:36;;;;;;;2.90;1.13;;;3.60;99.90;;;;;;5119793;28;20452;-56
2021/11/07 05:45:06;;;;;;;1.33;0.83;;;3.50;99.90;;;;;;5117372;27;20899;-54
2021/11/07 05:47:33;;;;;;;3.17;1.13;;;3.40;99.90;;;;;;5118427;28;20488;-56
2021/11/07 05:50:00;;;;;;;2.30;1.33;;;3.40;99.90;;;;;;5118339;28;20930;-55
2021/11/07 05:52:29;;;;;;;2.60;0.90;;;3.30;99.90;;;;;;5118536;28;20460;-57
2021/11/07 05:54:56;;;;;;;3.33;1.10;;;3.30;99.90;;;;;;5118403;28;20831;-55
2021/11/07 05:57:23;;;;;;;2.90;1.20;;;3.20;99.90;;;;;;5118097;28;20866;-56
2021/11/07 05:59:50;;;;;;;1.20;0.90;;;3.10;99.90;;;;;;5118955;28;21114;-57
2021/11/07 06:02:19;;;;;;;2.40;0.93;;;3.00;99.90;;;;;;5119130;28;20492;-57
2021/11/07 06:04:47;;;;;;;1.30;0.80;;;3.10;99.90;;;;;;5119366;28;20457;-57
2021/11/07 06:07:14;;;;;;;1.97;0.90;;;3.00;99.90;;;;;;5119246;28;20867;-57
2021/11/07 06:09:41;;;;;;;1.60;0.90;;;3.00;99.90;;;;;;5119375;28;20484;-57
2021/11/07 06:12:10;;;;;;;1.00;0.63;;;3.00;99.90;;;;;;5118147;28;20921;-56
2021/11/07 06:14:37;;;;;;;2.63;1.00;;;3.00;99.90;;;;;;5119217;28;20449;-56
2021/11/07 06:17:04;;;;;;;2.20;1.20;;;3.00;99.90;;;;;;5118833;28;20453;-56
2021/11/07 06:19:33;;;;;;;2.90;1.17;;;3.00;99.90;;;;;;5118898;28;20486;-57
2021/11/07 06:22:00;;;;;;;2.90;1.23;;;3.00;99.90;;;;;;5118548;28;20459;-56
2021/11/07 06:24:28;;;;;;;5.47;1.10;;;3.00;99.90;;;;;;5118692;28;20575;-56
2021/11/07 06:26:58;;;;;;;2.13;1.00;;;3.00;99.90;;;;;;5117162;28;20488;-58
2021/11/07 06:29:25;;;;;;;2.33;1.00;;;3.00;99.90;;;;;;5118946;28;20535;-55
2021/11/07 06:31:53;;;;;;;8.00;1.00;;;3.10;99.90;;;;;;5118715;28;20884;-57
2021/11/07 06:34:22;;;;;;;2.10;0.90;;;3.10;99.90;;;;;;5118271;28;20896;-58
2021/11/07 06:36:51;;;;;;;4.77;1.40;;;3.10;99.90;;;;;;5117781;28;20818;-56
2021/11/07 06:39:20;;;;;;;2.60;1.23;;;3.10;99.90;;;;;;5117080;28;20572;-56
2021/11/07 06:41:47;;;;;;;2.50;0.90;;;3.20;99.90;;;;;;5116634;28;20484;-56
2021/11/07 06:44:15;;;;;;;3.57;1.23;;;3.20;99.90;;;;;;5116751;28;20559;-56
2021/11/07 06:46:42;;;;;;;2.37;1.00;;;3.40;99.90;;;;;;5116444;28;20459;-55
2021/11/07 06:49:12;;;;;;;4.30;1.60;;;3.30;99.90;;;;;;5117276;28;20497;-55
2021/11/07 06:51:40;;;;;;;2.00;0.80;;;3.20;99.90;;;;;;5117355;28;20754;-57
2021/11/07 06:54:09;;;;;;;4.00;1.60;;;3.30;99.90;;;;;;5117672;27;20931;-53
2021/11/07 06:56:36;;;;;;;5.13;1.07;;;3.40;99.90;;;;;;5117209;28;20457;-57
2021/11/07 06:59:04;;;;;;;2.73;1.00;;;3.30;99.90;;;;;;5117900;28;20575;-57
2021/11/07 07:01:32;;;;;;;2.17;1.03;;;3.30;99.90;;;;;;5118109;28;20456;-56
2021/11/07 07:03:59;;;;;;;1.50;0.83;;;3.30;99.90;;;;;;5118054;28;21037;-56
2021/11/07 07:06:26;;;;;;;3.53;1.60;;;3.50;99.90;;;;;;5116447;28;20807;-58
2021/11/07 07:08:56;;;;;;;6.17;1.70;;;3.60;99.90;;;;;;5115831;28;20467;-58
2021/11/07 07:11:28;;;;;;;6.07;1.60;;;3.70;99.90;;;;;;5115641;28;20515;-56
2021/11/07 07:14:00;;;;;;;2.97;1.77;;;3.70;99.90;;;;;;5114813;27;20445;-58
2021/11/07 07:16:43;;;;;;;3.80;1.73;;;3.80;99.90;;;;;;5115981;28;20456;-53
2021/11/07 07:19:24;;;;;;;3.93;1.10;;;3.90;99.90;;;;;;5112205;28;20454;-56
2021/11/07 07:22:00;;;;;;;5.43;1.20;;;3.90;99.90;;;;;;5095487;28;20736;-57
2021/11/07 07:27:34;;;;;;;3.20;1.60;;;4.00;99.90;;;;;;5051927;28;20645;-55
2021/11/07 07:30:09;;;;;;;6.07;1.67;;;4.10;99.90;;;;;;5087326;28;20754;-56
2021/11/07 07:32:50;;;;;;;3.00;1.20;;;4.10;99.90;;;;;;5094652;28;20526;-55
2021/11/07 07:35:22;;;;;;;2.73;1.07;;;4.20;99.90;;;;;;5094186;28;20426;-55
2021/11/07 07:37:49;;;;;;;3.90;1.73;;;4.40;99.90;;;;;;5096540;28;20453;-52
2021/11/07 07:40:16;;;;;;;3.20;1.10;;;4.30;99.90;;;;;;5096709;28;20513;-56
2021/11/07 07:42:45;;;;;;;6.00;2.23;;;4.40;99.90;;;;;;5096818;28;20454;-55
2021/11/07 07:45:13;;;;;;;2.80;1.13;;;4.60;99.90;;;;;;5096141;28;20449;-56
2021/11/07 07:47:42;;;;;;;4.47;1.23;;;4.80;99.90;;;;;;5094877;28;20514;-55
2021/11/07 07:50:11;;;;;;;3.80;1.60;;;4.90;99.90;;;;;;5094722;28;20437;-56
2021/11/07 07:52:39;;;;;;;4.60;1.60;;;5.10;99.90;;;;;;5094516;28;20449;-56
2021/11/07 07:55:08;;;;;;;3.30;1.17;;;5.40;99.90;;;;;;5094469;28;20424;-57
2021/11/07 07:57:35;;;;;;;3.40;1.23;;;5.60;99.90;;;;;;5094905;28;20531;-55
2021/11/07 08:00:06;;;;;;;4.20;2.40;;;5.60;99.90;;;;;;5094422;28;20994;-56
2021/11/07 08:02:33;;;;;;;4.37;1.60;;;5.40;99.90;;;;;;5095254;28;20802;-57
2021/11/07 08:05:01;;;;;;;5.13;1.53;;;5.50;99.90;;;;;;5095032;28;20478;-56
2021/11/07 08:07:28;;;;;;;5.57;1.50;;;5.60;99.90;;;;;;5095151;28;20528;-57
2021/11/07 08:09:55;;;;;;;3.57;1.33;;;5.60;99.90;;;;;;5094969;28;20763;-55
2021/11/07 08:12:22;;;;;;;2.80;1.40;;;5.50;99.90;;;;;;5094898;28;20485;-55
2021/11/07 08:14:50;;;;;;;3.53;1.50;;;5.50;99.90;;;;;;5094111;28;20510;-56
2021/11/07 08:17:19;;;;;;;4.80;1.30;;;5.50;99.90;;;;;;5092651;28;20909;-57
2021/11/07 08:19:46;;;;;;;4.30;1.40;;;5.50;99.90;;;;;;5093921;28;20499;-59
2021/11/07 08:22:14;;;;;;;6.10;1.70;;;5.50;99.90;;;;;;5092931;28;20504;-57
2021/11/07 08:24:41;;;;;;;3.97;1.40;;;5.50;99.90;;;;;;5092268;28;20900;-58
2021/11/07 08:27:08;;;;;;;4.90;1.33;;;5.50;99.90;;;;;;5093344;28;20473;-58
2021/11/07 08:29:36;;;;;;;3.20;1.63;;;5.60;99.90;;;;;;5094902;28;20503;-56
2021/11/07 08:32:04;;;;;;;4.10;1.10;;;5.60;99.90;;;;;;5095481;28;20427;-56
2021/11/07 08:34:34;;;;;;;3.53;1.10;;;5.60;99.90;;;;;;5095328;28;20449;-57
2021/11/07 08:37:05;;;;;;;2.20;1.40;;;5.60;99.90;;;;;;5095945;28;20940;-55
2021/11/07 08:39:35;;;;;;;3.30;1.40;;;5.60;99.90;;;;;;5095538;28;20477;-56
2021/11/07 08:42:04;;;;;;;6.33;1.10;;;5.60;99.90;;;;;;5096119;28;20558;-57
2021/11/07 09:01:09;;;;;;;4.97;1.40;;;5.60;99.90;;;;;;5092421;28;20785;-56
2021/11/07 09:03:47;;;;;;;1.77;1.00;;;5.60;99.90;;;;;;5093461;28;20447;-55
2021/11/07 09:06:35;;;;;;;2.83;0.87;;;5.60;99.90;;;;;;5092754;28;20472;-56
2021/11/07 09:09:08;;;;;;;3.53;1.27;;;5.70;99.90;;;;;;5094646;28;20456;-57
2021/11/07 09:11:35;;;;;;;3.20;0.90;;;5.90;99.90;;;;;;5095019;28;20457;-57
2021/11/07 09:14:03;;;;;;;3.93;1.10;;;6.10;99.90;;;;;;5094551;28;20559;-56
2021/11/07 09:16:31;;;;;;;1.50;0.90;;;6.20;99.90;;;;;;5094651;28;20453;-57
2021/11/07 09:19:00;;;;;;;1.43;0.80;;;6.30;99.90;;;;;;5094454;28;20455;-58
2021/11/07 09:21:32;;;;;;;2.90;0.80;;;6.40;99.90;;;;;;5095249;28;20814;-53
2021/11/07 09:24:04;;;;;;;4.23;0.70;;;6.60;99.90;;;;;;5094833;28;20632;-58
2021/11/07 09:26:35;;;;;;;2.43;0.90;;;6.80;99.90;;;;;;5093895;28;20780;-56
2021/11/07 09:29:05;;;;;;;2.87;1.00;;;7.00;99.90;;;;;;5095483;28;20488;-57
2021/11/07 09:31:46;;;;;;;2.53;0.60;;;7.20;99.90;;;;;;5095268;28;20757;-54
2021/11/07 09:34:21;;;;;;;1.83;0.77;;;7.30;99.90;;;;;;5095552;28;20488;-59
2021/11/07 09:36:56;;;;;;;2.13;0.80;;;7.50;99.90;;;;;;5095344;28;20464;-58
2021/11/07 09:39:31;;;;;;;1.20;0.80;;;7.60;99.90;;;;;;5095809;28;20836;-59
2021/11/07 09:42:25;;;;;;;1.63;0.60;;;7.70;99.90;;;;;;5095436;28;20885;-58
2021/11/07 09:44:55;;;;;;;1.87;0.90;;;7.70;99.90;;;;;;5095366;28;20733;-59
2021/11/07 09:47:25;;;;;;;1.53;0.70;;;7.90;99.90;;;;;;5097254;28;20493;-59
2021/11/07 09:49:53;;;;;;;1.77;0.70;;;7.90;99.90;;;;;;5098036;28;20445;-59
2021/11/07 09:52:26;;;;;;;1.37;0.60;;;7.90;99.90;;;;;;5097257;28;21042;-59
2021/11/07 09:54:59;;;;;;;1.40;0.70;;;8.10;99.90;;;;;;5097699;28;20814;-59
2021/11/07 09:57:26;;;;;;;1.53;0.77;;;8.30;99.90;;;;;;5098162;28;20469;-58
2021/11/07 09:59:56;;;;;;;0.90;0.50;;;8.50;99.90;;;;;;5097205;28;20488;-58
2021/11/07 10:02:26;;;;;;;1.23;0.70;;;8.70;99.90;;;;;;5097973;28;20918;-58
2021/11/07 10:04:54;;;;;;;0.97;0.50;;;8.80;99.90;;;;;;5097867;28;20450;-58
2021/11/07 10:07:28;;;;;;;1.03;0.70;;;8.90;99.90;;;;;;5097563;28;20916;-58
2021/11/07 10:09:59;;;;;;;2.03;0.57;;;9.00;99.90;;;;;;5097073;28;20445;-59
2021/11/07 10:12:34;;;;;;;0.97;0.60;;;9.10;99.90;;;;;;5097008;28;20464;-57
2021/11/07 10:15:04;;;;;;;1.10;0.60;;;9.00;99.90;;;;;;5096075;28;20535;-57
2021/11/07 10:17:44;;;;;;;0.77;0.50;;;9.20;99.90;;;;;;5095731;28;20450;-59
2021/11/07 10:20:24;;;;;;;1.80;0.50;;;9.40;99.90;;;;;;5097161;28;20481;-60
2021/11/07 10:22:57;;;;;;;0.80;0.50;;;9.40;99.90;;;;;;5097466;28;20693;-60
2021/11/07 10:25:31;;;;;;;0.50;0.40;;;9.50;99.90;;;;;;5095425;28;21065;-58
2021/11/07 10:27:59;;;;;;;0.60;0.40;;;9.50;99.90;;;;;;5097624;28;20453;-58
2021/11/07 10:30:27;;;;;;;0.70;0.30;;;9.50;99.90;;;;;;5098000;28;20545;-60
2021/11/07 10:33:00;;;;;;;0.70;0.40;;;9.50;99.90;;;;;;5096746;28;21051;-57
2021/11/07 10:44:32;;;;;;;0.80;0.40;;;9.80;99.90;;;;;;5083785;28;20478;-58
2021/11/07 10:47:24;;;;;;;0.80;0.40;;;10.00;99.90;;;;;;5113804;28;20883;-55
2021/11/07 10:52:38;;;;;;;0.70;0.43;;;10.20;99.90;;;;;;5104459;28;20444;-57
2021/11/07 10:55:15;;;;;;;0.60;0.40;;;10.30;99.90;;;;;;5114740;28;20501;-57
2021/11/07 10:57:46;;;;;;;0.60;0.30;;;10.40;99.90;;;;;;5113552;28;20436;-57
2021/11/07 11:00:27;;;;;;;0.60;0.40;;;10.50;99.90;;;;;;5108216;28;20553;-57
2021/11/07 11:02:56;;;;;;;0.77;0.30;;;10.50;99.90;;;;;;5114903;28;20448;-58
2021/11/07 11:05:26;;;;;;;0.60;0.30;;;10.60;99.90;;;;;;5114579;28;20489;-59
2021/11/07 11:08:00;;;;;;;1.27;0.50;;;10.70;99.90;;;;;;5114531;28;20452;-58
2021/11/07 11:10:36;;;;;;;0.50;0.20;;;10.90;99.90;;;;;;5113646;28;20445;-56
2021/11/07 11:13:10;;;;;;;0.60;0.40;;;11.00;99.90;;;;;;5116543;28;20463;-58
2021/11/07 11:15:43;;;;;;;0.90;0.37;;;11.00;99.90;;;;;;5114857;28;20531;-57
2021/11/07 11:18:27;;;;;;;0.70;0.30;;;11.10;99.90;;;;;;5116775;28;20452;-57
2021/11/07 11:21:27;;;;;;;0.90;0.40;;;11.40;99.90;;;;;;5114081;28;20476;-57
2021/11/07 11:24:07;;;;;;;0.60;0.30;;;11.60;99.90;;;;;;5115948;28;20492;-55
2021/11/07 11:26:47;;;;;;;0.60;0.30;;;11.60;99.90;;;;;;5112204;28;20658;-55
2021/11/07 11:32:02;;;;;;;0.60;0.40;;;11.70;99.90;;;;;;5113304;28;20961;-57
2021/11/07 11:34:33;;;;;;;0.40;0.20;;;11.80;99.90;;;;;;5114460;28;20470;-56
2021/11/07 11:37:06;;;;;;;0.40;0.20;;;11.70;99.90;;;;;;5114845;28;20506;-56
2021/11/07 11:39:37;;;;;;;0.50;0.20;;;11.70;99.90;;;;;;5114786;28;20567;-57
2021/11/07 11:42:10;;;;;;;0.30;0.10;;;11.80;99.90;;;;;;5114984;28;20822;-57
2021/11/07 11:44:37;;;;;;;0.30;0.20;;;11.70;99.90;;;;;;5114241;28;20918;-57
2021/11/07 11:47:18;;;;;;;0.40;0.20;;;11.60;99.90;;;;;;5113916;28;20480;-56
2021/11/07 11:52:54;;;;;;;0.43;0.23;;;11.30;99.90;;;;;;5070959;28;20442;-57
2021/11/07 11:55:30;;;;;;;0.50;0.20;;;11.30;99.90;;;;;;5107464;28;20539;-57
2021/11/07 11:58:11;;;;;;;0.40;0.20;;;11.40;99.90;;;;;;5112789;28;20448;-55
2021/11/07 12:00:49;;;;;;;0.40;0.20;;;11.50;99.90;;;;;;5113007;28;20789;-58
2021/11/07 12:03:36;;;;;;;1.00;0.30;;;11.60;99.90;;;;;;5112738;28;20452;-57
2021/11/07 12:06:25;;;;;;;0.70;0.20;;;11.60;99.90;;;;;;5111283;28;20512;-58
2021/11/07 12:09:43;;;;;;;0.40;0.20;;;11.70;99.90;;;;;;5112748;28;20455;-56
2021/11/07 12:12:16;;;;;;;0.50;0.30;;;11.80;99.90;;;;;;5112165;28;20563;-58
2021/11/07 12:15:05;;;;;;;0.60;0.20;;;11.90;99.90;;;;;;5107303;28;20444;-56
2021/11/07 12:17:34;;;;;;;0.80;0.30;;;12.10;99.90;;;;;;5097308;28;20773;-58
2021/11/07 12:20:25;;;;;;;0.90;0.50;;;12.10;99.90;;;;;;5114195;28;20473;-57
2021/11/07 12:23:13;;;;;;;1.00;0.30;;;12.20;99.90;;;;;;5106829;28;20456;-57
2021/11/07 12:25:41;;;;;;;0.60;0.20;;;12.30;99.90;;;;;;5111196;28;20535;-57
2021/11/07 12:28:08;;;;;;;0.30;0.20;;;12.30;99.90;;;;;;5113707;28;20448;-57
2021/11/07 12:30:39;;;;;;;0.30;0.20;;;12.40;99.90;;;;;;5111385;28;20521;-58
2021/11/07 12:33:12;;;;;;;0.40;0.10;;;12.50;99.90;;;;;;5111657;28;20548;-57
2021/11/07 12:35:47;;;;;;;0.30;0.10;;;12.50;99.90;;;;;;5110647;28;20508;-58
2021/11/07 12:41:23;;;;;;;0.40;0.20;;;12.40;99.90;;;;;;5072787;28;20464;-58
2021/11/07 12:43:52;;;;;;;0.30;0.10;;;12.50;99.90;;;;;;5109864;28;20454;-57
2021/11/07 12:46:33;;;;;;;0.43;0.20;;;12.50;99.90;;;;;;5110639;28;20876;-58
2021/11/07 12:49:02;;;;;;;0.30;0.20;;;12.50;99.90;;;;;;5106587;28;20437;-58
2021/11/07 12:51:37;;;;;;;0.37;0.20;;;12.50;99.90;;;;;;5111431;28;20444;-58
2021/11/07 12:54:14;;;;;;;0.40;0.20;;;12.50;99.90;;;;;;5104307;28;20468;-58
2021/11/07 12:56:51;;;;;;;0.30;0.20;;;12.50;99.90;;;;;;5113572;28;20456;-59
2021/11/07 12:59:21;;;;;;;0.30;0.20;;;12.40;99.90;;;;;;5113465;28;20444;-58
2021/11/07 13:02:01;;;;;;;0.50;0.20;;;12.40;99.90;;;;;;5113955;28;20571;-58
2021/11/07 13:04:30;;;;;;;0.20;0.10;;;12.50;99.90;;;;;;5111841;28;20909;-57
2021/11/07 13:06:59;;;;;;;0.30;0.10;;;12.50;99.90;;;;;;5112625;28;20452;-58
2021/11/07 13:09:33;;;;;;;0.30;0.20;;;12.50;99.90;;;;;;5112397;28;20444;-59
2021/11/07 13:12:09;;;;;;;0.43;0.20;;;12.60;99.90;;;;;;5111772;28;20879;-58
2021/11/07 13:14:54;;;;;;;0.30;0.10;;;12.40;99.90;;;;;;5113490;28;20451;-59
2021/11/07 13:17:46;;;;;;;0.57;0.10;;;12.20;99.90;;;;;;5112491;28;20459;-59
2021/11/07 13:23:25;;;;;;;0.30;0.20;;;12.00;99.90;;;;;;5100211;28;20433;-59
2021/11/07 13:25:57;;;;;;;0.30;0.20;;;12.00;99.90;;;;;;5112854;28;20471;-59
2021/11/07 13:28:35;;;;;;;0.30;0.20;;;12.10;99.90;;;;;;5115917;28;20456;-56
2021/11/07 13:31:19;;;;;;;0.37;0.13;;;12.10;99.90;;;;;;5117041;28;20444;-58
2021/11/07 13:33:48;;;;;;;0.40;0.20;;;12.00;99.90;;;;;;5118308;28;20469;-59
2021/11/07 13:36:18;;;;;;;0.30;0.20;;;12.00;99.90;;;;;;5117896;28;20487;-56
2021/11/07 13:38:46;;;;;;;0.50;0.20;;;11.90;99.90;;;;;;5117653;28;20539;-58
2021/11/07 13:41:16;;;;;;;0.50;0.20;;;12.00;99.90;;;;;;5117071;28;20486;-58
2021/11/07 13:43:47;;;;;;;0.40;0.20;;;11.90;99.90;;;;;;5118181;28;20441;-58
2021/11/07 13:46:15;;;;;;;0.40;0.20;;;11.60;99.90;;;;;;5118578;28;20444;-59
2021/11/07 13:48:42;;;;;;;0.40;0.17;;;11.60;99.90;;;;;;5117514;28;20543;-57
2021/11/07 13:51:12;;;;;;;0.30;0.20;;;11.60;99.90;;;;;;5116409;28;20444;-58
2021/11/07 13:53:42;;;;;;;0.30;0.10;;;11.60;99.90;;;;;;5117749;27;20495;-59
2021/11/07 13:56:11;;;;;;;0.37;0.20;;;11.60;99.90;;;;;;5117295;27;20444;-58
2021/11/07 13:58:41;;;;;;;0.60;0.20;;;11.60;99.90;;;;;;5117012;28;20895;-60
2021/11/07 14:01:10;;;;;;;0.70;0.20;;;11.50;99.90;;;;;;5117842;28;20472;-61
2021/11/07 14:03:37;;;;;;;0.77;0.30;;;11.40;99.90;;;;;;5118365;28;20445;-58
2021/11/07 14:06:11;;;;;;;1.90;0.20;;;11.40;99.90;;;;;;5118269;28;20487;-57